sensor_id;sensor_type;location;lat;lon;timestamp;P1;durP1;ratioP1;P2;durP2;ratioP2
6135;SDS011;24008;42.664;23.372;2023-04-01T00:01:16;25.20;;;14.83;;
6135;SDS011;24008;42.664;23.372;2023-04-01T00:03:43;25.70;;;14.83;;
6135;SDS011;24008;42.664;23.372;2023-04-01T00:06:10;25.17;;;14.43;;
6135;SDS011;24008;42.664;23.372;2023-04-01T00:08:39;29.33;;;15.30;;
6135;SDS011;24008;42.664;23.372;2023-04-01T00:11:06;25.97;;;15.10;;
6135;SDS011;24008;42.664;23.372;2023-04-01T00:13:35;25.67;;;14.90;;
6135;SDS011;24008;42.664;23.372;2023-04-01T00:16:02;21.40;;;14.23;;
6135;SDS011;24008;42.664;23.372;2023-04-01T00:18:29;22.17;;;13.13;;
6135;SDS011;24008;42.664;23.372;2023-04-01T00:20:56;24.17;;;13.70;;
6135;SDS011;24008;42.664;23.372;2023-04-01T00:23:23;20.63;;;13.30;;
6135;SDS011;24008;42.664;23.372;2023-04-01T00:25:50;18.60;;;12.37;;
6135;SDS011;24008;42.664;23.372;2023-04-01T00:28:17;23.70;;;12.37;;
6135;SDS011;24008;42.664;23.372;2023-04-01T00:30:47;23.43;;;12.83;;
6135;SDS011;24008;42.664;23.372;2023-04-01T00:33:14;19.47;;;12.53;;
6135;SDS011;24008;42.664;23.372;2023-04-01T00:35:41;19.83;;;13.20;;
6135;SDS011;24008;42.664;23.372;2023-04-01T00:38:08;21.90;;;12.80;;
6135;SDS011;24008;42.664;23.372;2023-04-01T00:40:37;21.67;;;12.10;;
6135;SDS011;24008;42.664;23.372;2023-04-01T00:43:08;25.83;;;12.77;;
6135;SDS011;24008;42.664;23.372;2023-04-01T00:45:39;21.33;;;12.90;;
6135;SDS011;24008;42.664;23.372;2023-04-01T00:48:09;20.23;;;12.47;;
6135;SDS011;24008;42.664;23.372;2023-04-01T00:50:39;21.17;;;12.80;;
6135;SDS011;24008;42.664;23.372;2023-04-01T00:53:09;17.80;;;13.10;;
6135;SDS011;24008;42.664;23.372;2023-04-01T00:55:38;17.93;;;12.27;;
6135;SDS011;24008;42.664;23.372;2023-04-01T00:58:08;21.27;;;12.00;;
6135;SDS011;24008;42.664;23.372;2023-04-01T01:00:40;16.20;;;12.37;;
6135;SDS011;24008;42.664;23.372;2023-04-01T01:03:09;19.53;;;12.90;;
6135;SDS011;24008;42.664;23.372;2023-04-01T01:05:41;18.53;;;12.20;;
6135;SDS011;24008;42.664;23.372;2023-04-01T01:08:25;19.83;;;11.93;;
6135;SDS011;24008;42.664;23.372;2023-04-01T01:11:03;17.87;;;11.37;;
6135;SDS011;24008;42.664;23.372;2023-04-01T01:13:34;21.10;;;10.83;;
6135;SDS011;24008;42.664;23.372;2023-04-01T01:16:09;16.83;;;11.63;;
6135;SDS011;24008;42.664;23.372;2023-04-01T01:18:43;20.87;;;11.30;;
6135;SDS011;24008;42.664;23.372;2023-04-01T01:24:25;14.37;;;9.23;;
6135;SDS011;24008;42.664;23.372;2023-04-01T01:27:11;12.93;;;8.67;;
6135;SDS011;24008;42.664;23.372;2023-04-01T01:29:53;12.97;;;8.13;;
6135;SDS011;24008;42.664;23.372;2023-04-01T01:35:47;13.87;;;7.33;;
6135;SDS011;24008;42.664;23.372;2023-04-01T01:38:17;10.33;;;6.13;;
6135;SDS011;24008;42.664;23.372;2023-04-01T01:40:48;12.30;;;5.60;;
6135;SDS011;24008;42.664;23.372;2023-04-01T01:43:19;12.10;;;5.17;;
6135;SDS011;24008;42.664;23.372;2023-04-01T01:45:51;10.43;;;4.83;;
6135;SDS011;24008;42.664;23.372;2023-04-01T01:48:20;8.20;;;5.53;;
6135;SDS011;24008;42.664;23.372;2023-04-01T01:50:49;10.53;;;5.90;;
6135;SDS011;24008;42.664;23.372;2023-04-01T01:53:17;12.57;;;6.90;;
6135;SDS011;24008;42.664;23.372;2023-04-01T01:55:44;9.83;;;5.73;;
6135;SDS011;24008;42.664;23.372;2023-04-01T01:58:13;8.47;;;5.10;;
6135;SDS011;24008;42.664;23.372;2023-04-01T02:00:45;11.37;;;5.70;;
6135;SDS011;24008;42.664;23.372;2023-04-01T02:03:16;11.27;;;5.60;;
6135;SDS011;24008;42.664;23.372;2023-04-01T02:05:45;11.60;;;5.80;;
6135;SDS011;24008;42.664;23.372;2023-04-01T02:08:14;10.87;;;4.90;;
6135;SDS011;24008;42.664;23.372;2023-04-01T02:10:48;6.97;;;4.23;;
6135;SDS011;24008;42.664;23.372;2023-04-01T02:13:23;10.97;;;4.80;;
6135;SDS011;24008;42.664;23.372;2023-04-01T02:15:56;9.60;;;5.00;;
6135;SDS011;24008;42.664;23.372;2023-04-01T02:18:28;10.57;;;5.50;;
6135;SDS011;24008;42.664;23.372;2023-04-01T02:20:56;9.47;;;4.77;;
6135;SDS011;24008;42.664;23.372;2023-04-01T02:23:26;12.47;;;4.73;;
6135;SDS011;24008;42.664;23.372;2023-04-01T02:25:54;8.20;;;4.80;;
6135;SDS011;24008;42.664;23.372;2023-04-01T02:28:21;9.60;;;4.87;;
6135;SDS011;24008;42.664;23.372;2023-04-01T02:30:50;9.53;;;5.30;;
6135;SDS011;24008;42.664;23.372;2023-04-01T02:33:18;7.77;;;4.53;;
6135;SDS011;24008;42.664;23.372;2023-04-01T02:35:46;9.47;;;4.73;;
6135;SDS011;24008;42.664;23.372;2023-04-01T02:38:13;12.03;;;6.80;;
6135;SDS011;24008;42.664;23.372;2023-04-01T02:40:44;12.50;;;6.10;;
6135;SDS011;24008;42.664;23.372;2023-04-01T02:43:13;11.43;;;6.13;;
6135;SDS011;24008;42.664;23.372;2023-04-01T02:45:41;12.33;;;5.83;;
6135;SDS011;24008;42.664;23.372;2023-04-01T02:48:08;16.50;;;6.80;;
6135;SDS011;24008;42.664;23.372;2023-04-01T02:50:35;16.30;;;6.83;;
6135;SDS011;24008;42.664;23.372;2023-04-01T02:53:02;11.63;;;6.83;;
6135;SDS011;24008;42.664;23.372;2023-04-01T02:55:31;12.77;;;6.73;;
6135;SDS011;24008;42.664;23.372;2023-04-01T02:57:59;14.37;;;7.07;;
6135;SDS011;24008;42.664;23.372;2023-04-01T03:00:26;12.27;;;6.57;;
6135;SDS011;24008;42.664;23.372;2023-04-01T03:02:53;16.03;;;7.57;;
6135;SDS011;24008;42.664;23.372;2023-04-01T03:05:20;18.33;;;9.90;;
6135;SDS011;24008;42.664;23.372;2023-04-01T03:07:47;16.43;;;9.77;;
6135;SDS011;24008;42.664;23.372;2023-04-01T03:10:14;13.47;;;9.03;;
6135;SDS011;24008;42.664;23.372;2023-04-01T03:12:40;19.60;;;10.20;;
6135;SDS011;24008;42.664;23.372;2023-04-01T03:15:10;15.73;;;10.43;;
6135;SDS011;24008;42.664;23.372;2023-04-01T03:17:38;18.10;;;10.00;;
6135;SDS011;24008;42.664;23.372;2023-04-01T03:20:05;17.60;;;10.13;;
6135;SDS011;24008;42.664;23.372;2023-04-01T03:22:33;18.83;;;9.93;;
6135;SDS011;24008;42.664;23.372;2023-04-01T03:25:00;21.70;;;9.97;;
6135;SDS011;24008;42.664;23.372;2023-04-01T03:27:27;17.60;;;10.43;;
6135;SDS011;24008;42.664;23.372;2023-04-01T03:29:53;64.30;;;36.10;;
6135;SDS011;24008;42.664;23.372;2023-04-01T03:32:22;18.23;;;11.73;;
6135;SDS011;24008;42.664;23.372;2023-04-01T03:34:48;19.73;;;11.33;;
6135;SDS011;24008;42.664;23.372;2023-04-01T03:37:15;21.63;;;13.00;;
6135;SDS011;24008;42.664;23.372;2023-04-01T03:39:42;18.47;;;10.27;;
6135;SDS011;24008;42.664;23.372;2023-04-01T03:42:09;23.23;;;10.73;;
6135;SDS011;24008;42.664;23.372;2023-04-01T03:44:35;18.87;;;11.10;;
6135;SDS011;24008;42.664;23.372;2023-04-01T03:47:03;20.20;;;11.57;;
6135;SDS011;24008;42.664;23.372;2023-04-01T03:49:31;18.17;;;11.80;;
6135;SDS011;24008;42.664;23.372;2023-04-01T03:51:59;23.20;;;11.60;;
6135;SDS011;24008;42.664;23.372;2023-04-01T03:54:25;23.07;;;12.50;;
6135;SDS011;24008;42.664;23.372;2023-04-01T03:56:52;22.83;;;12.57;;
6135;SDS011;24008;42.664;23.372;2023-04-01T03:59:38;29.27;;;12.87;;
6135;SDS011;24008;42.664;23.372;2023-04-01T04:02:05;19.60;;;13.00;;
6135;SDS011;24008;42.664;23.372;2023-04-01T04:04:33;24.00;;;12.57;;
6135;SDS011;24008;42.664;23.372;2023-04-01T04:07:00;20.03;;;11.97;;
6135;SDS011;24008;42.664;23.372;2023-04-01T04:09:27;25.40;;;14.50;;
6135;SDS011;24008;42.664;23.372;2023-04-01T04:11:56;26.27;;;14.30;;
6135;SDS011;24008;42.664;23.372;2023-04-01T04:14:23;19.27;;;10.23;;
6135;SDS011;24008;42.664;23.372;2023-04-01T04:16:50;18.27;;;9.33;;
6135;SDS011;24008;42.664;23.372;2023-04-01T04:19:16;14.90;;;8.90;;
6135;SDS011;24008;42.664;23.372;2023-04-01T04:21:45;16.87;;;8.83;;
6135;SDS011;24008;42.664;23.372;2023-04-01T04:24:11;15.63;;;8.80;;
6135;SDS011;24008;42.664;23.372;2023-04-01T04:26:38;16.70;;;9.30;;
6135;SDS011;24008;42.664;23.372;2023-04-01T04:29:05;14.23;;;8.47;;
6135;SDS011;24008;42.664;23.372;2023-04-01T04:31:32;16.33;;;9.00;;
6135;SDS011;24008;42.664;23.372;2023-04-01T04:33:59;15.30;;;8.97;;
6135;SDS011;24008;42.664;23.372;2023-04-01T04:36:27;16.73;;;9.03;;
6135;SDS011;24008;42.664;23.372;2023-04-01T04:38:55;20.60;;;10.10;;
6135;SDS011;24008;42.664;23.372;2023-04-01T04:41:23;17.47;;;8.50;;
6135;SDS011;24008;42.664;23.372;2023-04-01T04:43:51;13.80;;;7.10;;
6135;SDS011;24008;42.664;23.372;2023-04-01T04:46:20;11.33;;;7.23;;
6135;SDS011;24008;42.664;23.372;2023-04-01T04:48:46;12.33;;;6.80;;
6135;SDS011;24008;42.664;23.372;2023-04-01T04:51:14;13.10;;;6.63;;
6135;SDS011;24008;42.664;23.372;2023-04-01T04:53:41;11.37;;;6.53;;
6135;SDS011;24008;42.664;23.372;2023-04-01T04:56:10;12.53;;;6.40;;
6135;SDS011;24008;42.664;23.372;2023-04-01T04:58:37;12.87;;;7.33;;
6135;SDS011;24008;42.664;23.372;2023-04-01T05:01:05;12.33;;;8.13;;
6135;SDS011;24008;42.664;23.372;2023-04-01T05:03:33;20.83;;;9.27;;
6135;SDS011;24008;42.664;23.372;2023-04-01T05:06:00;19.50;;;10.10;;
6135;SDS011;24008;42.664;23.372;2023-04-01T05:08:27;18.53;;;10.03;;
6135;SDS011;24008;42.664;23.372;2023-04-01T05:10:57;19.40;;;9.30;;
6135;SDS011;24008;42.664;23.372;2023-04-01T05:13:25;21.50;;;9.80;;
6135;SDS011;24008;42.664;23.372;2023-04-01T05:15:52;13.93;;;8.97;;
6135;SDS011;24008;42.664;23.372;2023-04-01T05:18:20;14.60;;;8.53;;
6135;SDS011;24008;42.664;23.372;2023-04-01T05:20:48;16.50;;;8.20;;
6135;SDS011;24008;42.664;23.372;2023-04-01T05:23:16;18.73;;;10.40;;
6135;SDS011;24008;42.664;23.372;2023-04-01T05:25:43;26.03;;;15.47;;
6135;SDS011;24008;42.664;23.372;2023-04-01T05:28:11;19.97;;;8.90;;
6135;SDS011;24008;42.664;23.372;2023-04-01T05:30:40;23.10;;;13.87;;
6135;SDS011;24008;42.664;23.372;2023-04-01T05:33:08;12.20;;;7.20;;
6135;SDS011;24008;42.664;23.372;2023-04-01T05:35:35;10.20;;;5.63;;
6135;SDS011;24008;42.664;23.372;2023-04-01T05:38:02;10.37;;;5.67;;
6135;SDS011;24008;42.664;23.372;2023-04-01T05:40:29;11.70;;;6.20;;
6135;SDS011;24008;42.664;23.372;2023-04-01T05:42:56;14.47;;;6.40;;
6135;SDS011;24008;42.664;23.372;2023-04-01T05:45:23;9.87;;;7.13;;
6135;SDS011;24008;42.664;23.372;2023-04-01T05:47:51;12.30;;;6.90;;
6135;SDS011;24008;42.664;23.372;2023-04-01T05:50:18;22.43;;;12.13;;
6135;SDS011;24008;42.664;23.372;2023-04-01T05:52:45;11.83;;;8.50;;
6135;SDS011;24008;42.664;23.372;2023-04-01T05:55:12;11.87;;;7.17;;
6135;SDS011;24008;42.664;23.372;2023-04-01T05:57:39;17.27;;;8.20;;
6135;SDS011;24008;42.664;23.372;2023-04-01T06:00:06;12.47;;;7.73;;
6135;SDS011;24008;42.664;23.372;2023-04-01T06:02:33;13.20;;;8.27;;
6135;SDS011;24008;42.664;23.372;2023-04-01T06:05:18;13.27;;;7.17;;
6135;SDS011;24008;42.664;23.372;2023-04-01T06:07:47;12.97;;;7.70;;
6135;SDS011;24008;42.664;23.372;2023-04-01T06:10:14;10.83;;;6.87;;
6135;SDS011;24008;42.664;23.372;2023-04-01T06:12:47;14.00;;;8.43;;
6135;SDS011;24008;42.664;23.372;2023-04-01T06:15:23;12.20;;;7.27;;
6135;SDS011;24008;42.664;23.372;2023-04-01T06:18:10;19.33;;;7.17;;
6135;SDS011;24008;42.664;23.372;2023-04-01T06:21:15;12.27;;;6.90;;
6135;SDS011;24008;42.664;23.372;2023-04-01T06:24:21;10.40;;;6.97;;
6135;SDS011;24008;42.664;23.372;2023-04-01T06:27:01;13.33;;;8.20;;
6135;SDS011;24008;42.664;23.372;2023-04-01T06:29:44;11.40;;;6.30;;
6135;SDS011;24008;42.664;23.372;2023-04-01T06:32:23;13.30;;;8.13;;
6135;SDS011;24008;42.664;23.372;2023-04-01T06:35:11;17.83;;;9.23;;
6135;SDS011;24008;42.664;23.372;2023-04-01T06:38:00;18.10;;;9.17;;
6135;SDS011;24008;42.664;23.372;2023-04-01T06:40:56;12.77;;;8.80;;
6135;SDS011;24008;42.664;23.372;2023-04-01T06:43:46;15.63;;;9.00;;
6135;SDS011;24008;42.664;23.372;2023-04-01T06:46:24;14.97;;;8.87;;
6135;SDS011;24008;42.664;23.372;2023-04-01T06:49:19;15.37;;;8.57;;
6135;SDS011;24008;42.664;23.372;2023-04-01T06:51:57;12.20;;;7.80;;
6135;SDS011;24008;42.664;23.372;2023-04-01T06:54:31;10.57;;;7.57;;
6135;SDS011;24008;42.664;23.372;2023-04-01T06:57:02;12.97;;;7.50;;
6135;SDS011;24008;42.664;23.372;2023-04-01T06:59:36;18.37;;;8.97;;
6135;SDS011;24008;42.664;23.372;2023-04-01T07:02:04;13.33;;;8.47;;
6135;SDS011;24008;42.664;23.372;2023-04-01T07:04:43;13.70;;;8.03;;
6135;SDS011;24008;42.664;23.372;2023-04-01T07:07:14;13.63;;;8.70;;
6135;SDS011;24008;42.664;23.372;2023-04-01T07:09:50;11.37;;;7.23;;
6135;SDS011;24008;42.664;23.372;2023-04-01T07:12:38;14.03;;;8.20;;
6135;SDS011;24008;42.664;23.372;2023-04-01T07:15:13;13.40;;;8.27;;
6135;SDS011;24008;42.664;23.372;2023-04-01T07:17:45;15.97;;;8.00;;
6135;SDS011;24008;42.664;23.372;2023-04-01T07:20:18;15.83;;;7.87;;
6135;SDS011;24008;42.664;23.372;2023-04-01T07:22:49;13.77;;;8.00;;
6135;SDS011;24008;42.664;23.372;2023-04-01T07:25:22;13.73;;;7.87;;
6135;SDS011;24008;42.664;23.372;2023-04-01T07:27:52;18.13;;;8.13;;
6135;SDS011;24008;42.664;23.372;2023-04-01T07:30:23;11.00;;;7.23;;
6135;SDS011;24008;42.664;23.372;2023-04-01T07:32:54;19.37;;;8.27;;
6135;SDS011;24008;42.664;23.372;2023-04-01T07:35:27;11.70;;;7.60;;
6135;SDS011;24008;42.664;23.372;2023-04-01T07:38:07;13.17;;;7.80;;
6135;SDS011;24008;42.664;23.372;2023-04-01T07:40:45;13.93;;;8.07;;
6135;SDS011;24008;42.664;23.372;2023-04-01T07:43:24;19.17;;;8.37;;
6135;SDS011;24008;42.664;23.372;2023-04-01T07:46:03;17.17;;;8.60;;
6135;SDS011;24008;42.664;23.372;2023-04-01T07:48:39;15.57;;;7.77;;
6135;SDS011;24008;42.664;23.372;2023-04-01T07:51:13;15.00;;;7.83;;
6135;SDS011;24008;42.664;23.372;2023-04-01T07:53:45;13.67;;;7.20;;
6135;SDS011;24008;42.664;23.372;2023-04-01T07:56:20;12.03;;;7.03;;
6135;SDS011;24008;42.664;23.372;2023-04-01T07:58:54;18.60;;;7.60;;
6135;SDS011;24008;42.664;23.372;2023-04-01T08:01:29;12.80;;;7.07;;
6135;SDS011;24008;42.664;23.372;2023-04-01T08:04:11;13.57;;;7.23;;
6135;SDS011;24008;42.664;23.372;2023-04-01T08:06:52;11.43;;;7.10;;
6135;SDS011;24008;42.664;23.372;2023-04-01T08:09:27;16.37;;;8.13;;
6135;SDS011;24008;42.664;23.372;2023-04-01T08:12:07;17.53;;;7.43;;
6135;SDS011;24008;42.664;23.372;2023-04-01T08:14:52;15.40;;;7.70;;
6135;SDS011;24008;42.664;23.372;2023-04-01T08:17:28;12.40;;;7.87;;
6135;SDS011;24008;42.664;23.372;2023-04-01T08:20:09;14.77;;;7.47;;
6135;SDS011;24008;42.664;23.372;2023-04-01T08:22:50;14.50;;;6.50;;
6135;SDS011;24008;42.664;23.372;2023-04-01T08:25:24;14.07;;;6.60;;
6135;SDS011;24008;42.664;23.372;2023-04-01T08:27:56;16.73;;;6.83;;
6135;SDS011;24008;42.664;23.372;2023-04-01T08:30:32;14.30;;;6.73;;
6135;SDS011;24008;42.664;23.372;2023-04-01T08:33:05;13.73;;;6.57;;
6135;SDS011;24008;42.664;23.372;2023-04-01T08:35:40;16.90;;;7.07;;
6135;SDS011;24008;42.664;23.372;2023-04-01T08:38:13;13.23;;;6.53;;
6135;SDS011;24008;42.664;23.372;2023-04-01T08:40:53;15.33;;;6.90;;
6135;SDS011;24008;42.664;23.372;2023-04-01T08:49:35;12.63;;;6.47;;
6135;SDS011;24008;42.664;23.372;2023-04-01T08:52:26;14.73;;;6.50;;
6135;SDS011;24008;42.664;23.372;2023-04-01T08:57:57;10.73;;;6.00;;
6135;SDS011;24008;42.664;23.372;2023-04-01T09:00:43;16.37;;;6.57;;
6135;SDS011;24008;42.664;23.372;2023-04-01T09:06:28;12.45;;;6.32;;
6135;SDS011;24008;42.664;23.372;2023-04-01T09:09:09;11.93;;;5.67;;
6135;SDS011;24008;42.664;23.372;2023-04-01T09:21:15;10.40;;;6.00;;
6135;SDS011;24008;42.664;23.372;2023-04-01T09:24:04;11.60;;;5.83;;
6135;SDS011;24008;42.664;23.372;2023-04-01T09:26:53;18.17;;;6.17;;
6135;SDS011;24008;42.664;23.372;2023-04-01T09:32:39;14.80;;;4.97;;
6135;SDS011;24008;42.664;23.372;2023-04-01T09:35:23;14.57;;;6.70;;
6135;SDS011;24008;42.664;23.372;2023-04-01T09:37:57;9.27;;;3.80;;
6135;SDS011;24008;42.664;23.372;2023-04-01T09:40:41;9.10;;;4.50;;
6135;SDS011;24008;42.664;23.372;2023-04-01T09:43:25;10.80;;;4.10;;
6135;SDS011;24008;42.664;23.372;2023-04-01T09:46:06;9.20;;;4.53;;
6135;SDS011;24008;42.664;23.372;2023-04-01T09:51:50;9.30;;;3.77;;
6135;SDS011;24008;42.664;23.372;2023-04-01T09:54:34;8.87;;;4.10;;
6135;SDS011;24008;42.664;23.372;2023-04-01T10:00:46;6.00;;;3.77;;
6135;SDS011;24008;42.664;23.372;2023-04-01T10:16:04;12.10;;;4.63;;
6135;SDS011;24008;42.664;23.372;2023-04-01T10:19:09;8.53;;;5.03;;
6135;SDS011;24008;42.664;23.372;2023-04-01T10:21:51;9.57;;;4.90;;
6135;SDS011;24008;42.664;23.372;2023-04-01T10:24:56;9.33;;;5.30;;
6135;SDS011;24008;42.664;23.372;2023-04-01T10:30:54;8.50;;;5.10;;
6135;SDS011;24008;42.664;23.372;2023-04-01T10:34:13;9.90;;;4.23;;
6135;SDS011;24008;42.664;23.372;2023-04-01T10:37:06;7.00;;;4.30;;
6135;SDS011;24008;42.664;23.372;2023-04-01T10:45:57;7.90;;;4.27;;
6135;SDS011;24008;42.664;23.372;2023-04-01T10:48:55;10.67;;;4.63;;
6135;SDS011;24008;42.664;23.372;2023-04-01T10:54:47;10.07;;;4.60;;
6135;SDS011;24008;42.664;23.372;2023-04-01T10:57:33;7.27;;;4.20;;
6135;SDS011;24008;42.664;23.372;2023-04-01T11:00:27;6.13;;;4.10;;
6135;SDS011;24008;42.664;23.372;2023-04-01T11:03:18;13.53;;;4.97;;
6135;SDS011;24008;42.664;23.372;2023-04-01T11:06:13;7.90;;;4.90;;
6135;SDS011;24008;42.664;23.372;2023-04-01T11:09:08;14.60;;;4.57;;
6135;SDS011;24008;42.664;23.372;2023-04-01T11:12:05;10.57;;;5.17;;
6135;SDS011;24008;42.664;23.372;2023-04-01T11:15:11;11.27;;;5.30;;
6135;SDS011;24008;42.664;23.372;2023-04-01T11:18:00;8.33;;;3.97;;
6135;SDS011;24008;42.664;23.372;2023-04-01T11:26:57;14.67;;;4.47;;
6135;SDS011;24008;42.664;23.372;2023-04-01T11:29:38;8.63;;;4.50;;
6135;SDS011;24008;42.664;23.372;2023-04-01T11:32:28;9.20;;;3.97;;
6135;SDS011;24008;42.664;23.372;2023-04-01T11:35:27;10.60;;;3.40;;
6135;SDS011;24008;42.664;23.372;2023-04-01T11:38:04;10.47;;;2.60;;
6135;SDS011;24008;42.664;23.372;2023-04-01T11:41:07;6.23;;;2.50;;
6135;SDS011;24008;42.664;23.372;2023-04-01T11:43:49;7.50;;;2.30;;
6135;SDS011;24008;42.664;23.372;2023-04-01T11:46:33;9.27;;;2.47;;
6135;SDS011;24008;42.664;23.372;2023-04-01T11:49:11;7.57;;;2.30;;
6135;SDS011;24008;42.664;23.372;2023-04-01T11:51:55;10.50;;;2.53;;
6135;SDS011;24008;42.664;23.372;2023-04-01T11:54:38;9.30;;;2.90;;
6135;SDS011;24008;42.664;23.372;2023-04-01T11:57:30;11.83;;;3.23;;
6135;SDS011;24008;42.664;23.372;2023-04-01T12:00:35;6.27;;;3.40;;
6135;SDS011;24008;42.664;23.372;2023-04-01T12:03:28;5.77;;;3.50;;
6135;SDS011;24008;42.664;23.372;2023-04-01T12:06:16;9.03;;;4.03;;
6135;SDS011;24008;42.664;23.372;2023-04-01T12:08:50;8.03;;;4.20;;
6135;SDS011;24008;42.664;23.372;2023-04-01T12:11:26;10.30;;;5.03;;
6135;SDS011;24008;42.664;23.372;2023-04-01T12:14:03;6.77;;;4.27;;
6135;SDS011;24008;42.664;23.372;2023-04-01T12:16:41;10.17;;;4.77;;
6135;SDS011;24008;42.664;23.372;2023-04-01T12:19:15;8.27;;;4.83;;
6135;SDS011;24008;42.664;23.372;2023-04-01T12:21:55;7.80;;;5.00;;
6135;SDS011;24008;42.664;23.372;2023-04-01T12:24:47;8.47;;;5.17;;
6135;SDS011;24008;42.664;23.372;2023-04-01T12:27:27;7.17;;;4.70;;
6135;SDS011;24008;42.664;23.372;2023-04-01T12:33:04;7.20;;;4.93;;
6135;SDS011;24008;42.664;23.372;2023-04-01T12:35:52;9.30;;;6.07;;
6135;SDS011;24008;42.664;23.372;2023-04-01T12:38:30;8.60;;;6.33;;
6135;SDS011;24008;42.664;23.372;2023-04-01T12:41:03;12.57;;;6.60;;
6135;SDS011;24008;42.664;23.372;2023-04-01T12:46:35;9.50;;;5.60;;
6135;SDS011;24008;42.664;23.372;2023-04-01T12:49:25;6.83;;;5.60;;
6135;SDS011;24008;42.664;23.372;2023-04-01T12:52:09;9.53;;;4.97;;
6135;SDS011;24008;42.664;23.372;2023-04-01T13:01:08;11.80;;;5.67;;
6135;SDS011;24008;42.664;23.372;2023-04-01T13:06:57;9.40;;;5.73;;
6135;SDS011;24008;42.664;23.372;2023-04-01T13:09:40;10.80;;;5.50;;
6135;SDS011;24008;42.664;23.372;2023-04-01T13:15:09;11.93;;;7.03;;
6135;SDS011;24008;42.664;23.372;2023-04-01T13:17:46;10.67;;;5.93;;
6135;SDS011;24008;42.664;23.372;2023-04-01T13:20:23;6.50;;;4.67;;
6135;SDS011;24008;42.664;23.372;2023-04-01T13:22:59;6.67;;;4.80;;
6135;SDS011;24008;42.664;23.372;2023-04-01T13:25:38;7.30;;;4.77;;
6135;SDS011;24008;42.664;23.372;2023-04-01T13:28:14;5.70;;;4.20;;
6135;SDS011;24008;42.664;23.372;2023-04-01T13:30:45;9.07;;;4.63;;
6135;SDS011;24008;42.664;23.372;2023-04-01T13:33:17;6.63;;;3.97;;
6135;SDS011;24008;42.664;23.372;2023-04-01T13:35:56;6.67;;;3.83;;
6135;SDS011;24008;42.664;23.372;2023-04-01T13:38:39;5.90;;;4.33;;
6135;SDS011;24008;42.664;23.372;2023-04-01T13:41:22;7.03;;;4.17;;
6135;SDS011;24008;42.664;23.372;2023-04-01T13:43:58;7.80;;;5.87;;
6135;SDS011;24008;42.664;23.372;2023-04-01T13:46:34;7.70;;;4.30;;
6135;SDS011;24008;42.664;23.372;2023-04-01T13:49:31;7.13;;;3.73;;
6135;SDS011;24008;42.664;23.372;2023-04-01T13:55:23;6.93;;;3.60;;
6135;SDS011;24008;42.664;23.372;2023-04-01T13:58:07;7.07;;;4.30;;
6135;SDS011;24008;42.664;23.372;2023-04-01T14:00:59;6.77;;;4.53;;
6135;SDS011;24008;42.664;23.372;2023-04-01T14:06:39;6.20;;;4.00;;
6135;SDS011;24008;42.664;23.372;2023-04-01T14:12:19;6.70;;;4.50;;
6135;SDS011;24008;42.664;23.372;2023-04-01T14:14:58;11.97;;;5.83;;
6135;SDS011;24008;42.664;23.372;2023-04-01T14:20:45;9.13;;;4.97;;
6135;SDS011;24008;42.664;23.372;2023-04-01T14:29:26;8.83;;;4.30;;
6135;SDS011;24008;42.664;23.372;2023-04-01T14:32:06;9.07;;;4.50;;
6135;SDS011;24008;42.664;23.372;2023-04-01T14:34:46;15.33;;;6.00;;
6135;SDS011;24008;42.664;23.372;2023-04-01T14:37:29;9.27;;;5.83;;
6135;SDS011;24008;42.664;23.372;2023-04-01T14:40:20;9.27;;;4.90;;
6135;SDS011;24008;42.664;23.372;2023-04-01T14:42:59;7.13;;;5.10;;
6135;SDS011;24008;42.664;23.372;2023-04-01T14:45:45;8.57;;;5.37;;
6135;SDS011;24008;42.664;23.372;2023-04-01T14:48:23;12.23;;;5.57;;
6135;SDS011;24008;42.664;23.372;2023-04-01T14:50:55;7.73;;;5.00;;
6135;SDS011;24008;42.664;23.372;2023-04-01T14:53:31;8.60;;;5.07;;
6135;SDS011;24008;42.664;23.372;2023-04-01T14:56:03;7.53;;;4.50;;
6135;SDS011;24008;42.664;23.372;2023-04-01T14:58:40;7.23;;;4.53;;
6135;SDS011;24008;42.664;23.372;2023-04-01T15:01:20;7.77;;;4.00;;
6135;SDS011;24008;42.664;23.372;2023-04-01T15:04:10;9.40;;;4.57;;
6135;SDS011;24008;42.664;23.372;2023-04-01T15:07:02;7.87;;;5.17;;
6135;SDS011;24008;42.664;23.372;2023-04-01T15:09:46;12.70;;;9.57;;
6135;SDS011;24008;42.664;23.372;2023-04-01T15:12:22;11.43;;;7.93;;
6135;SDS011;24008;42.664;23.372;2023-04-01T15:14:58;6.53;;;4.90;;
6135;SDS011;24008;42.664;23.372;2023-04-01T15:17:43;7.53;;;5.43;;
6135;SDS011;24008;42.664;23.372;2023-04-01T15:23:19;9.67;;;5.93;;
6135;SDS011;24008;42.664;23.372;2023-04-01T15:26:01;14.67;;;6.27;;
6135;SDS011;24008;42.664;23.372;2023-04-01T15:28:42;11.17;;;5.93;;
6135;SDS011;24008;42.664;23.372;2023-04-01T15:31:16;7.30;;;5.73;;
6135;SDS011;24008;42.664;23.372;2023-04-01T15:33:57;8.70;;;5.00;;
6135;SDS011;24008;42.664;23.372;2023-04-01T15:36:35;8.60;;;5.13;;
6135;SDS011;24008;42.664;23.372;2023-04-01T15:39:12;7.97;;;4.60;;
6135;SDS011;24008;42.664;23.372;2023-04-01T15:41:43;7.33;;;5.00;;
6135;SDS011;24008;42.664;23.372;2023-04-01T15:44:26;7.90;;;4.37;;
6135;SDS011;24008;42.664;23.372;2023-04-01T15:47:07;8.53;;;5.33;;
6135;SDS011;24008;42.664;23.372;2023-04-01T15:50:00;10.57;;;5.77;;
6135;SDS011;24008;42.664;23.372;2023-04-01T15:52:54;10.27;;;6.73;;
6135;SDS011;24008;42.664;23.372;2023-04-01T15:55:37;5.90;;;3.43;;
6135;SDS011;24008;42.664;23.372;2023-04-01T15:58:20;4.20;;;2.43;;
6135;SDS011;24008;42.664;23.372;2023-04-01T16:01:02;2.57;;;2.03;;
6135;SDS011;24008;42.664;23.372;2023-04-01T16:03:37;3.83;;;2.80;;
6135;SDS011;24008;42.664;23.372;2023-04-01T16:06:17;3.27;;;2.90;;
6135;SDS011;24008;42.664;23.372;2023-04-01T16:09:02;7.90;;;3.90;;
6135;SDS011;24008;42.664;23.372;2023-04-01T16:11:39;6.57;;;3.90;;
6135;SDS011;24008;42.664;23.372;2023-04-01T16:14:16;5.47;;;3.87;;
6135;SDS011;24008;42.664;23.372;2023-04-01T16:16:54;5.93;;;4.23;;
6135;SDS011;24008;42.664;23.372;2023-04-01T16:19:32;6.87;;;4.40;;
6135;SDS011;24008;42.664;23.372;2023-04-01T16:22:09;4.80;;;4.23;;
6135;SDS011;24008;42.664;23.372;2023-04-01T16:24:42;6.83;;;4.33;;
6135;SDS011;24008;42.664;23.372;2023-04-01T16:27:14;6.40;;;4.67;;
6135;SDS011;24008;42.664;23.372;2023-04-01T16:29:51;4.77;;;4.07;;
6135;SDS011;24008;42.664;23.372;2023-04-01T16:32:34;5.00;;;4.23;;
6135;SDS011;24008;42.664;23.372;2023-04-01T16:35:15;5.70;;;4.47;;
6135;SDS011;24008;42.664;23.372;2023-04-01T16:37:51;6.43;;;4.87;;
6135;SDS011;24008;42.664;23.372;2023-04-01T16:40:24;7.33;;;5.40;;
6135;SDS011;24008;42.664;23.372;2023-04-01T16:43:05;7.07;;;5.53;;
6135;SDS011;24008;42.664;23.372;2023-04-01T16:45:38;6.90;;;5.27;;
6135;SDS011;24008;42.664;23.372;2023-04-01T16:48:11;6.30;;;4.80;;
6135;SDS011;24008;42.664;23.372;2023-04-01T16:50:42;6.50;;;5.20;;
6135;SDS011;24008;42.664;23.372;2023-04-01T16:53:19;4.63;;;3.90;;
6135;SDS011;24008;42.664;23.372;2023-04-01T16:55:52;5.17;;;4.10;;
6135;SDS011;24008;42.664;23.372;2023-04-01T16:58:26;3.47;;;2.90;;
6135;SDS011;24008;42.664;23.372;2023-04-01T17:01:00;5.00;;;3.73;;
6135;SDS011;24008;42.664;23.372;2023-04-01T17:03:32;4.03;;;3.60;;
6135;SDS011;24008;42.664;23.372;2023-04-01T17:06:10;5.80;;;3.40;;
6135;SDS011;24008;42.664;23.372;2023-04-01T17:08:56;3.10;;;2.43;;
6135;SDS011;24008;42.664;23.372;2023-04-01T17:11:33;4.03;;;3.10;;
6135;SDS011;24008;42.664;23.372;2023-04-01T17:14:10;3.10;;;2.70;;
6135;SDS011;24008;42.664;23.372;2023-04-01T17:16:52;3.37;;;2.90;;